sensor_id;sensor_type;location;lat;lon;timestamp;temperature;humidity
814;DHT22;389;48.710;9.392;2023-03-14T00:00:08;10.90;99.90
814;DHT22;389;48.710;9.392;2023-03-14T00:02:38;10.90;99.90
814;DHT22;389;48.710;9.392;2023-03-14T00:05:05;11.00;99.90
814;DHT22;389;48.710;9.392;2023-03-14T00:07:41;10.90;99.90
814;DHT22;389;48.710;9.392;2023-03-14T00:10:10;10.90;99.90
814;DHT22;389;48.710;9.392;2023-03-14T00:12:36;10.90;99.90
814;DHT22;389;48.710;9.392;2023-03-14T00:15:02;11.00;99.90
814;DHT22;389;48.710;9.392;2023-03-14T00:17:29;11.00;99.90
814;DHT22;389;48.710;9.392;2023-03-14T00:19:55;11.00;99.90
814;DHT22;389;48.710;9.392;2023-03-14T00:22:21;11.00;99.90
814;DHT22;389;48.710;9.392;2023-03-14T00:24:46;11.00;99.90
814;DHT22;389;48.710;9.392;2023-03-14T00:27:12;11.10;99.90
814;DHT22;389;48.710;9.392;2023-03-14T00:29:38;11.00;99.90
814;DHT22;389;48.710;9.392;2023-03-14T00:32:04;11.00;99.90
814;DHT22;389;48.710;9.392;2023-03-14T00:34:31;11.10;99.90
814;DHT22;389;48.710;9.392;2023-03-14T00:36:57;11.10;99.90
814;DHT22;389;48.710;9.392;2023-03-14T00:39:23;11.10;99.90
814;DHT22;389;48.710;9.392;2023-03-14T00:41:48;11.10;99.90
814;DHT22;389;48.710;9.392;2023-03-14T00:44:14;11.10;99.90
814;DHT22;389;48.710;9.392;2023-03-14T00:46:41;11.20;99.90
814;DHT22;389;48.710;9.392;2023-03-14T00:49:07;11.10;99.90
814;DHT22;389;48.710;9.392;2023-03-14T00:51:33;11.20;99.90
814;DHT22;389;48.710;9.392;2023-03-14T00:53:59;11.20;99.90
814;DHT22;389;48.710;9.392;2023-03-14T00:56:25;11.10;99.90
814;DHT22;389;48.710;9.392;2023-03-14T00:58:56;11.10;99.90
814;DHT22;389;48.710;9.392;2023-03-14T01:01:22;11.10;99.90
814;DHT22;389;48.710;9.392;2023-03-14T01:03:51;11.30;99.90
814;DHT22;389;48.710;9.392;2023-03-14T01:06:20;11.10;99.90
814;DHT22;389;48.710;9.392;2023-03-14T01:08:47;11.10;99.90
814;DHT22;389;48.710;9.392;2023-03-14T01:11:18;11.20;99.90
814;DHT22;389;48.710;9.392;2023-03-14T01:13:44;11.10;99.90
814;DHT22;389;48.710;9.392;2023-03-14T01:16:11;11.10;99.90
814;DHT22;389;48.710;9.392;2023-03-14T01:18:51;11.10;99.90
814;DHT22;389;48.710;9.392;2023-03-14T01:21:20;11.00;99.90
814;DHT22;389;48.710;9.392;2023-03-14T01:23:47;11.00;99.90
814;DHT22;389;48.710;9.392;2023-03-14T01:26:17;11.10;99.90
814;DHT22;389;48.710;9.392;2023-03-14T01:28:45;11.10;99.90
814;DHT22;389;48.710;9.392;2023-03-14T01:31:13;11.10;99.90
814;DHT22;389;48.710;9.392;2023-03-14T01:33:39;11.10;99.90
814;DHT22;389;48.710;9.392;2023-03-14T01:36:06;11.10;99.90
814;DHT22;389;48.710;9.392;2023-03-14T01:38:33;11.10;99.90
814;DHT22;389;48.710;9.392;2023-03-14T01:40:59;11.20;99.90
814;DHT22;389;48.710;9.392;2023-03-14T01:43:25;11.20;99.90
814;DHT22;389;48.710;9.392;2023-03-14T01:48:40;11.10;99.90
814;DHT22;389;48.710;9.392;2023-03-14T01:51:11;11.10;99.90
814;DHT22;389;48.710;9.392;2023-03-14T01:53:39;11.00;99.90
814;DHT22;389;48.710;9.392;2023-03-14T01:56:11;11.00;99.90
814;DHT22;389;48.710;9.392;2023-03-14T01:58:39;11.00;99.90
814;DHT22;389;48.710;9.392;2023-03-14T02:01:08;10.90;99.90
814;DHT22;389;48.710;9.392;2023-03-14T02:03:48;10.90;99.90
814;DHT22;389;48.710;9.392;2023-03-14T02:06:21;10.90;99.90
814;DHT22;389;48.710;9.392;2023-03-14T02:08:48;10.80;99.90
814;DHT22;389;48.710;9.392;2023-03-14T02:11:15;10.80;99.90
814;DHT22;389;48.710;9.392;2023-03-14T02:13:42;10.80;99.90
814;DHT22;389;48.710;9.392;2023-03-14T02:16:08;10.80;99.90
814;DHT22;389;48.710;9.392;2023-03-14T02:18:34;10.80;99.90
814;DHT22;389;48.710;9.392;2023-03-14T02:21:20;10.80;99.90
814;DHT22;389;48.710;9.392;2023-03-14T02:24:09;10.70;99.90
814;DHT22;389;48.710;9.392;2023-03-14T02:27:11;10.70;99.90
814;DHT22;389;48.710;9.392;2023-03-14T02:30:00;10.70;99.90
814;DHT22;389;48.710;9.392;2023-03-14T02:32:27;10.70;99.90
814;DHT22;389;48.710;9.392;2023-03-14T02:34:57;10.70;99.90
814;DHT22;389;48.710;9.392;2023-03-14T02:37:34;10.70;99.90
814;DHT22;389;48.710;9.392;2023-03-14T02:40:02;10.70;99.90
814;DHT22;389;48.710;9.392;2023-03-14T02:47:46;10.70;99.90
814;DHT22;389;48.710;9.392;2023-03-14T02:50:18;10.70;99.90
814;DHT22;389;48.710;9.392;2023-03-14T02:52:45;10.70;99.90
814;DHT22;389;48.710;9.392;2023-03-14T03:00:20;10.80;99.90
814;DHT22;389;48.710;9.392;2023-03-14T03:02:46;10.80;99.90
814;DHT22;389;48.710;9.392;2023-03-14T03:05:15;10.80;99.90
814;DHT22;389;48.710;9.392;2023-03-14T03:07:41;10.80;99.90
814;DHT22;389;48.710;9.392;2023-03-14T03:10:07;10.80;99.90
814;DHT22;389;48.710;9.392;2023-03-14T03:12:33;10.80;99.90
814;DHT22;389;48.710;9.392;2023-03-14T03:17:29;10.80;99.90
814;DHT22;389;48.710;9.392;2023-03-14T03:19:58;10.80;99.90
814;DHT22;389;48.710;9.392;2023-03-14T03:22:24;10.80;99.90
814;DHT22;389;48.710;9.392;2023-03-14T03:24:50;10.70;99.90
814;DHT22;389;48.710;9.392;2023-03-14T03:27:15;10.80;99.90
814;DHT22;389;48.710;9.392;2023-03-14T03:29:41;10.70;99.90
814;DHT22;389;48.710;9.392;2023-03-14T03:32:07;10.70;99.90
814;DHT22;389;48.710;9.392;2023-03-14T03:34:33;10.70;99.90
814;DHT22;389;48.710;9.392;2023-03-14T03:36:58;10.60;99.90
814;DHT22;389;48.710;9.392;2023-03-14T03:39:24;10.70;99.90
814;DHT22;389;48.710;9.392;2023-03-14T03:41:49;10.60;99.90
814;DHT22;389;48.710;9.392;2023-03-14T03:44:15;10.50;99.90
814;DHT22;389;48.710;9.392;2023-03-14T03:46:40;10.60;99.90
814;DHT22;389;48.710;9.392;2023-03-14T03:49:06;10.50;99.90
814;DHT22;389;48.710;9.392;2023-03-14T03:51:32;10.50;99.90
814;DHT22;389;48.710;9.392;2023-03-14T03:53:58;10.50;99.90
814;DHT22;389;48.710;9.392;2023-03-14T03:56:23;10.50;99.90
814;DHT22;389;48.710;9.392;2023-03-14T03:58:49;10.40;99.90
814;DHT22;389;48.710;9.392;2023-03-14T04:01:15;10.40;99.90
814;DHT22;389;48.710;9.392;2023-03-14T04:03:41;10.50;99.90
814;DHT22;389;48.710;9.392;2023-03-14T04:06:09;10.30;99.90
814;DHT22;389;48.710;9.392;2023-03-14T04:08:35;10.30;99.90
814;DHT22;389;48.710;9.392;2023-03-14T04:14:23;10.20;99.90
814;DHT22;389;48.710;9.392;2023-03-14T04:16:49;10.20;99.90
814;DHT22;389;48.710;9.392;2023-03-14T04:19:15;10.10;99.90
814;DHT22;389;48.710;9.392;2023-03-14T04:21:40;10.20;99.90
814;DHT22;389;48.710;9.392;2023-03-14T04:24:10;10.00;99.90
814;DHT22;389;48.710;9.392;2023-03-14T04:26:36;10.00;99.90
814;DHT22;389;48.710;9.392;2023-03-14T04:29:01;10.00;99.90
814;DHT22;389;48.710;9.392;2023-03-14T04:31:28;10.00;99.90
814;DHT22;389;48.710;9.392;2023-03-14T04:33:54;9.90;99.90
814;DHT22;389;48.710;9.392;2023-03-14T04:36:19;9.90;99.90
814;DHT22;389;48.710;9.392;2023-03-14T04:38:45;9.90;99.90
814;DHT22;389;48.710;9.392;2023-03-14T04:41:11;9.90;99.90
814;DHT22;389;48.710;9.392;2023-03-14T04:43:36;9.90;99.90
814;DHT22;389;48.710;9.392;2023-03-14T04:46:02;10.00;99.90
814;DHT22;389;48.710;9.392;2023-03-14T04:48:28;9.90;99.90
814;DHT22;389;48.710;9.392;2023-03-14T04:50:54;10.00;99.90
814;DHT22;389;48.710;9.392;2023-03-14T04:53:21;9.90;99.90
814;DHT22;389;48.710;9.392;2023-03-14T04:55:51;9.90;99.90
814;DHT22;389;48.710;9.392;2023-03-14T04:58:18;9.90;99.90
814;DHT22;389;48.710;9.392;2023-03-14T05:00:44;9.90;99.90
814;DHT22;389;48.710;9.392;2023-03-14T05:03:10;9.90;99.90
814;DHT22;389;48.710;9.392;2023-03-14T05:05:35;9.80;99.90
814;DHT22;389;48.710;9.392;2023-03-14T05:08:01;9.70;99.90
814;DHT22;389;48.710;9.392;2023-03-14T05:10:26;9.80;99.90
814;DHT22;389;48.710;9.392;2023-03-14T05:12:52;9.80;99.90
814;DHT22;389;48.710;9.392;2023-03-14T05:15:17;9.80;99.90
814;DHT22;389;48.710;9.392;2023-03-14T05:17:43;9.80;99.90
814;DHT22;389;48.710;9.392;2023-03-14T05:20:10;9.80;99.90
814;DHT22;389;48.710;9.392;2023-03-14T05:22:38;9.80;99.90
814;DHT22;389;48.710;9.392;2023-03-14T05:25:05;9.70;99.90
814;DHT22;389;48.710;9.392;2023-03-14T05:27:31;9.70;99.90
814;DHT22;389;48.710;9.392;2023-03-14T05:29:57;9.70;99.90
814;DHT22;389;48.710;9.392;2023-03-14T05:32:22;9.60;99.90
814;DHT22;389;48.710;9.392;2023-03-14T05:34:48;9.60;99.90
814;DHT22;389;48.710;9.392;2023-03-14T05:37:13;9.70;99.90
814;DHT22;389;48.710;9.392;2023-03-14T05:39:39;9.50;99.90
814;DHT22;389;48.710;9.392;2023-03-14T05:42:05;9.60;99.90
814;DHT22;389;48.710;9.392;2023-03-14T05:44:31;9.50;99.90
814;DHT22;389;48.710;9.392;2023-03-14T05:46:56;9.60;99.90
814;DHT22;389;48.710;9.392;2023-03-14T05:49:22;9.60;99.90
814;DHT22;389;48.710;9.392;2023-03-14T05:51:48;9.60;99.90
814;DHT22;389;48.710;9.392;2023-03-14T05:54:14;9.70;99.90
814;DHT22;389;48.710;9.392;2023-03-14T05:56:40;9.70;99.90
814;DHT22;389;48.710;9.392;2023-03-14T05:59:05;9.80;99.90
814;DHT22;389;48.710;9.392;2023-03-14T06:01:34;9.90;99.90
814;DHT22;389;48.710;9.392;2023-03-14T06:04:00;10.00;99.90
814;DHT22;389;48.710;9.392;2023-03-14T06:06:25;10.00;99.90
814;DHT22;389;48.710;9.392;2023-03-14T06:08:51;10.10;99.90
814;DHT22;389;48.710;9.392;2023-03-14T06:11:17;10.10;99.80
814;DHT22;389;48.710;9.392;2023-03-14T06:13:43;10.10;99.60
814;DHT22;389;48.710;9.392;2023-03-14T06:16:09;10.00;99.50
814;DHT22;389;48.710;9.392;2023-03-14T06:18:34;10.00;99.20
814;DHT22;389;48.710;9.392;2023-03-14T06:21:00;10.00;99.10
814;DHT22;389;48.710;9.392;2023-03-14T06:23:26;10.00;99.10
814;DHT22;389;48.710;9.392;2023-03-14T06:25:52;10.10;99.00
814;DHT22;389;48.710;9.392;2023-03-14T06:28:17;10.10;98.80
814;DHT22;389;48.710;9.392;2023-03-14T06:30:43;10.10;98.60
814;DHT22;389;48.710;9.392;2023-03-14T06:33:09;10.10;98.70
814;DHT22;389;48.710;9.392;2023-03-14T06:35:36;10.10;98.70
814;DHT22;389;48.710;9.392;2023-03-14T06:38:01;10.00;98.70
814;DHT22;389;48.710;9.392;2023-03-14T06:40:27;10.00;98.80
814;DHT22;389;48.710;9.392;2023-03-14T06:42:56;10.00;98.80
814;DHT22;389;48.710;9.392;2023-03-14T06:45:21;10.00;98.90
814;DHT22;389;48.710;9.392;2023-03-14T06:47:47;10.10;99.00
814;DHT22;389;48.710;9.392;2023-03-14T06:50:12;9.90;99.60
814;DHT22;389;48.710;9.392;2023-03-14T06:52:38;9.80;99.70
814;DHT22;389;48.710;9.392;2023-03-14T06:55:07;9.80;99.80
814;DHT22;389;48.710;9.392;2023-03-14T06:57:33;9.70;99.80
814;DHT22;389;48.710;9.392;2023-03-14T06:59:59;9.70;99.80
814;DHT22;389;48.710;9.392;2023-03-14T07:02:24;9.70;99.80
814;DHT22;389;48.710;9.392;2023-03-14T07:04:50;9.70;99.90
814;DHT22;389;48.710;9.392;2023-03-14T07:07:15;9.70;99.80
814;DHT22;389;48.710;9.392;2023-03-14T07:09:42;9.70;99.90
814;DHT22;389;48.710;9.392;2023-03-14T07:12:07;9.70;99.90
814;DHT22;389;48.710;9.392;2023-03-14T07:14:33;9.70;99.90
814;DHT22;389;48.710;9.392;2023-03-14T07:16:59;9.80;99.90
814;DHT22;389;48.710;9.392;2023-03-14T07:19:25;10.00;99.60
814;DHT22;389;48.710;9.392;2023-03-14T07:21:50;10.10;99.50
814;DHT22;389;48.710;9.392;2023-03-14T07:24:16;10.30;99.60
814;DHT22;389;48.710;9.392;2023-03-14T07:26:42;10.40;99.50
814;DHT22;389;48.710;9.392;2023-03-14T07:29:07;10.60;99.00
814;DHT22;389;48.710;9.392;2023-03-14T07:31:33;10.80;98.40
814;DHT22;389;48.710;9.392;2023-03-14T07:33:59;10.90;97.80
814;DHT22;389;48.710;9.392;2023-03-14T07:36:25;11.00;98.00
814;DHT22;389;48.710;9.392;2023-03-14T07:38:50;11.10;97.80
814;DHT22;389;48.710;9.392;2023-03-14T07:41:22;11.20;97.20
814;DHT22;389;48.710;9.392;2023-03-14T07:43:48;11.10;96.60
814;DHT22;389;48.710;9.392;2023-03-14T07:46:14;11.20;96.70
814;DHT22;389;48.710;9.392;2023-03-14T07:48:52;11.20;96.80
814;DHT22;389;48.710;9.392;2023-03-14T07:51:18;11.30;96.90
814;DHT22;389;48.710;9.392;2023-03-14T07:53:43;11.40;96.90
814;DHT22;389;48.710;9.392;2023-03-14T07:56:09;11.40;96.90
814;DHT22;389;48.710;9.392;2023-03-14T07:58:35;11.50;96.60
814;DHT22;389;48.710;9.392;2023-03-14T08:01:01;11.60;96.70
814;DHT22;389;48.710;9.392;2023-03-14T08:03:26;11.70;96.60
814;DHT22;389;48.710;9.392;2023-03-14T08:05:52;11.90;96.50
814;DHT22;389;48.710;9.392;2023-03-14T08:08:18;11.90;95.90
814;DHT22;389;48.710;9.392;2023-03-14T08:13:12;11.90;95.70
814;DHT22;389;48.710;9.392;2023-03-14T08:15:38;12.00;95.80
814;DHT22;389;48.710;9.392;2023-03-14T08:18:04;12.00;95.60
814;DHT22;389;48.710;9.392;2023-03-14T08:20:30;12.10;95.30
814;DHT22;389;48.710;9.392;2023-03-14T08:22:57;12.20;95.50
814;DHT22;389;48.710;9.392;2023-03-14T08:25:23;12.30;95.50
814;DHT22;389;48.710;9.392;2023-03-14T08:27:49;12.50;95.00
814;DHT22;389;48.710;9.392;2023-03-14T08:30:17;12.70;95.10
814;DHT22;389;48.710;9.392;2023-03-14T08:32:42;12.90;94.30
814;DHT22;389;48.710;9.392;2023-03-14T08:35:09;13.00;93.80
814;DHT22;389;48.710;9.392;2023-03-14T08:37:35;13.20;93.50
814;DHT22;389;48.710;9.392;2023-03-14T08:40:02;13.30;93.20
814;DHT22;389;48.710;9.392;2023-03-14T08:42:34;13.40;93.20
814;DHT22;389;48.710;9.392;2023-03-14T08:45:00;13.50;93.10
814;DHT22;389;48.710;9.392;2023-03-14T08:47:25;13.60;92.80
814;DHT22;389;48.710;9.392;2023-03-14T08:49:51;13.70;92.60
814;DHT22;389;48.710;9.392;2023-03-14T08:52:17;13.80;92.20
814;DHT22;389;48.710;9.392;2023-03-14T08:54:46;13.90;92.40
814;DHT22;389;48.710;9.392;2023-03-14T08:57:12;13.90;92.20
814;DHT22;389;48.710;9.392;2023-03-14T08:59:37;14.00;91.50
814;DHT22;389;48.710;9.392;2023-03-14T09:02:03;14.10;91.60
814;DHT22;389;48.710;9.392;2023-03-14T09:04:30;14.00;91.60
814;DHT22;389;48.710;9.392;2023-03-14T09:06:55;14.10;91.60
814;DHT22;389;48.710;9.392;2023-03-14T09:09:23;14.20;90.90
814;DHT22;389;48.710;9.392;2023-03-14T09:11:50;14.40;91.00
814;DHT22;389;48.710;9.392;2023-03-14T09:14:15;14.60;90.70
814;DHT22;389;48.710;9.392;2023-03-14T09:16:41;14.70;90.30
814;DHT22;389;48.710;9.392;2023-03-14T09:19:06;14.90;90.30
814;DHT22;389;48.710;9.392;2023-03-14T09:21:32;15.10;89.80
814;DHT22;389;48.710;9.392;2023-03-14T09:23:57;15.40;87.90
814;DHT22;389;48.710;9.392;2023-03-14T09:26:23;15.40;86.50
814;DHT22;389;48.710;9.392;2023-03-14T09:28:48;15.50;86.80
814;DHT22;389;48.710;9.392;2023-03-14T09:31:14;15.60;87.70
814;DHT22;389;48.710;9.392;2023-03-14T09:33:40;15.60;87.80
814;DHT22;389;48.710;9.392;2023-03-14T09:36:06;15.60;87.80
814;DHT22;389;48.710;9.392;2023-03-14T09:38:33;15.70;87.30
814;DHT22;389;48.710;9.392;2023-03-14T09:41:01;15.70;87.50
814;DHT22;389;48.710;9.392;2023-03-14T09:43:33;15.80;87.10
814;DHT22;389;48.710;9.392;2023-03-14T09:46:02;15.80;85.90
814;DHT22;389;48.710;9.392;2023-03-14T09:48:30;15.80;86.70
814;DHT22;389;48.710;9.392;2023-03-14T09:50:59;15.80;86.70
814;DHT22;389;48.710;9.392;2023-03-14T09:53:34;15.80;86.80
814;DHT22;389;48.710;9.392;2023-03-14T09:56:02;15.90;87.70
814;DHT22;389;48.710;9.392;2023-03-14T09:58:29;15.90;87.40
814;DHT22;389;48.710;9.392;2023-03-14T10:00:55;16.00;87.30
814;DHT22;389;48.710;9.392;2023-03-14T10:03:31;16.10;87.60
814;DHT22;389;48.710;9.392;2023-03-14T10:05:57;16.20;87.70
814;DHT22;389;48.710;9.392;2023-03-14T10:08:23;16.10;87.40
814;DHT22;389;48.710;9.392;2023-03-14T10:10:49;16.00;88.30
814;DHT22;389;48.710;9.392;2023-03-14T10:13:18;15.90;88.90
814;DHT22;389;48.710;9.392;2023-03-14T10:15:51;15.80;89.10
814;DHT22;389;48.710;9.392;2023-03-14T10:18:17;15.70;88.80
814;DHT22;389;48.710;9.392;2023-03-14T10:20:45;15.70;88.90
814;DHT22;389;48.710;9.392;2023-03-14T10:25:42;15.60;89.80
814;DHT22;389;48.710;9.392;2023-03-14T10:30:48;15.50;89.80
814;DHT22;389;48.710;9.392;2023-03-14T10:33:21;15.50;90.00
814;DHT22;389;48.710;9.392;2023-03-14T10:35:55;15.30;90.30
814;DHT22;389;48.710;9.392;2023-03-14T10:38:24;15.20;90.40
814;DHT22;389;48.710;9.392;2023-03-14T10:40:52;15.30;90.50
814;DHT22;389;48.710;9.392;2023-03-14T10:43:22;15.40;90.40
814;DHT22;389;48.710;9.392;2023-03-14T10:45:55;15.50;90.40
814;DHT22;389;48.710;9.392;2023-03-14T10:53:23;16.30;88.00
814;DHT22;389;48.710;9.392;2023-03-14T10:55:48;16.40;87.00
814;DHT22;389;48.710;9.392;2023-03-14T10:58:26;16.60;85.30
814;DHT22;389;48.710;9.392;2023-03-14T11:04:25;16.70;84.40
814;DHT22;389;48.710;9.392;2023-03-14T11:07:18;16.60;84.80
814;DHT22;389;48.710;9.392;2023-03-14T11:14:51;16.30;86.20
814;DHT22;389;48.710;9.392;2023-03-14T11:17:41;16.20;85.80
814;DHT22;389;48.710;9.392;2023-03-14T11:20:37;16.00;83.40
814;DHT22;389;48.710;9.392;2023-03-14T11:23:41;15.80;83.40
814;DHT22;389;48.710;9.392;2023-03-14T11:28:58;15.60;84.60
814;DHT22;389;48.710;9.392;2023-03-14T11:31:29;15.50;85.00
814;DHT22;389;48.710;9.392;2023-03-14T11:34:20;15.40;85.10
814;DHT22;389;48.710;9.392;2023-03-14T11:39:22;15.10;87.50
814;DHT22;389;48.710;9.392;2023-03-14T11:41:52;14.90;88.80
814;DHT22;389;48.710;9.392;2023-03-14T11:44:46;14.80;88.60
814;DHT22;389;48.710;9.392;2023-03-14T11:48:22;14.70;90.00
814;DHT22;389;48.710;9.392;2023-03-14T11:50:19;14.60;90.00
814;DHT22;389;48.710;9.392;2023-03-14T11:55:25;14.50;90.50
814;DHT22;389;48.710;9.392;2023-03-14T11:57:56;14.50;90.50
814;DHT22;389;48.710;9.392;2023-03-14T12:00:24;14.50;91.00
814;DHT22;389;48.710;9.392;2023-03-14T12:03:05;14.50;91.10
814;DHT22;389;48.710;9.392;2023-03-14T12:08:55;14.40;91.30
814;DHT22;389;48.710;9.392;2023-03-14T12:11:48;14.40;91.50
814;DHT22;389;48.710;9.392;2023-03-14T12:17:07;14.30;91.10
814;DHT22;389;48.710;9.392;2023-03-14T12:19:43;14.30;91.10
814;DHT22;389;48.710;9.392;2023-03-14T12:22:29;14.40;91.40
814;DHT22;389;48.710;9.392;2023-03-14T12:25:02;14.30;91.70
814;DHT22;389;48.710;9.392;2023-03-14T12:35:48;13.90;91.80
814;DHT22;389;48.710;9.392;2023-03-14T12:43:34;13.80;92.10
814;DHT22;389;48.710;9.392;2023-03-14T12:46:19;13.90;92.20
814;DHT22;389;48.710;9.392;2023-03-14T12:51:38;13.70;90.40
814;DHT22;389;48.710;9.392;2023-03-14T13:04:48;13.40;84.00
814;DHT22;389;48.710;9.392;2023-03-14T13:12:55;13.60;82.20
814;DHT22;389;48.710;9.392;2023-03-14T13:15:29;13.70;80.00
814;DHT22;389;48.710;9.392;2023-03-14T13:18:01;13.80;75.60
814;DHT22;389;48.710;9.392;2023-03-14T13:20:31;13.70;75.00
814;DHT22;389;48.710;9.392;2023-03-14T13:22:57;13.60;73.80
814;DHT22;389;48.710;9.392;2023-03-14T13:25:23;13.60;73.10
814;DHT22;389;48.710;9.392;2023-03-14T13:27:52;13.60;71.40
814;DHT22;389;48.710;9.392;2023-03-14T13:30:27;13.40;71.40
814;DHT22;389;48.710;9.392;2023-03-14T13:32:54;13.40;71.90
814;DHT22;389;48.710;9.392;2023-03-14T13:35:43;13.20;71.50
814;DHT22;389;48.710;9.392;2023-03-14T13:38:27;13.10;72.10
814;DHT22;389;48.710;9.392;2023-03-14T13:40:55;13.10;70.10
814;DHT22;389;48.710;9.392;2023-03-14T13:43:29;13.10;68.50
814;DHT22;389;48.710;9.392;2023-03-14T13:46:21;13.10;68.20
814;DHT22;389;48.710;9.392;2023-03-14T13:48:55;12.90;68.30
814;DHT22;389;48.710;9.392;2023-03-14T13:51:22;12.90;68.90
814;DHT22;389;48.710;9.392;2023-03-14T13:53:50;12.90;68.30
814;DHT22;389;48.710;9.392;2023-03-14T13:56:18;12.80;66.90
814;DHT22;389;48.710;9.392;2023-03-14T13:58:45;12.80;66.30
814;DHT22;389;48.710;9.392;2023-03-14T14:03:43;12.80;66.70
814;DHT22;389;48.710;9.392;2023-03-14T14:08:50;12.90;68.40
814;DHT22;389;48.710;9.392;2023-03-14T14:11:30;13.00;67.60
814;DHT22;389;48.710;9.392;2023-03-14T14:13:58;13.10;65.00
814;DHT22;389;48.710;9.392;2023-03-14T14:16:26;13.00;63.00
814;DHT22;389;48.710;9.392;2023-03-14T14:18:55;13.00;61.40
814;DHT22;389;48.710;9.392;2023-03-14T14:21:21;12.80;61.50
814;DHT22;389;48.710;9.392;2023-03-14T14:23:47;12.70;62.20
814;DHT22;389;48.710;9.392;2023-03-14T14:26:17;12.70;63.20
814;DHT22;389;48.710;9.392;2023-03-14T14:28:43;12.50;60.90
814;DHT22;389;48.710;9.392;2023-03-14T14:31:22;12.30;59.60
814;DHT22;389;48.710;9.392;2023-03-14T14:34:00;12.30;59.60
814;DHT22;389;48.710;9.392;2023-03-14T14:36:53;12.20;59.30
814;DHT22;389;48.710;9.392;2023-03-14T14:39:32;12.00;59.20
814;DHT22;389;48.710;9.392;2023-03-14T14:41:58;12.00;59.90
814;DHT22;389;48.710;9.392;2023-03-14T14:44:33;12.00;60.30
814;DHT22;389;48.710;9.392;2023-03-14T14:47:02;12.10;60.00
814;DHT22;389;48.710;9.392;2023-03-14T14:49:31;12.00;59.80
814;DHT22;389;48.710;9.392;2023-03-14T14:52:06;11.90;60.00
814;DHT22;389;48.710;9.392;2023-03-14T14:54:38;11.90;60.10
814;DHT22;389;48.710;9.392;2023-03-14T14:57:19;11.90;61.20
814;DHT22;389;48.710;9.392;2023-03-14T14:59:49;11.90;62.00
814;DHT22;389;48.710;9.392;2023-03-14T15:02:32;11.90;61.90
814;DHT22;389;48.710;9.392;2023-03-14T15:05:00;12.00;62.40
814;DHT22;389;48.710;9.392;2023-03-14T15:07:26;12.00;62.70
814;DHT22;389;48.710;9.392;2023-03-14T15:09:52;11.90;61.80
814;DHT22;389;48.710;9.392;2023-03-14T15:12:17;11.80;62.00
814;DHT22;389;48.710;9.392;2023-03-14T15:14:43;11.80;61.10
814;DHT22;389;48.710;9.392;2023-03-14T15:17:10;11.80;61.10
814;DHT22;389;48.710;9.392;2023-03-14T15:19:36;11.70;62.00
814;DHT22;389;48.710;9.392;2023-03-14T15:22:03;11.80;61.90
814;DHT22;389;48.710;9.392;2023-03-14T15:24:28;11.70;60.80
814;DHT22;389;48.710;9.392;2023-03-14T15:26:55;11.70;60.80
814;DHT22;389;48.710;9.392;2023-03-14T15:29:20;11.70;61.50
814;DHT22;389;48.710;9.392;2023-03-14T15:31:46;11.80;61.20
814;DHT22;389;48.710;9.392;2023-03-14T15:34:11;11.90;61.80
814;DHT22;389;48.710;9.392;2023-03-14T15:36:37;12.10;61.80
814;DHT22;389;48.710;9.392;2023-03-14T15:39:05;12.20;61.50
814;DHT22;389;48.710;9.392;2023-03-14T15:41:31;12.30;59.90
814;DHT22;389;48.710;9.392;2023-03-14T15:43:57;12.30;59.50
814;DHT22;389;48.710;9.392;2023-03-14T15:46:23;12.30;60.30
814;DHT22;389;48.710;9.392;2023-03-14T15:48:50;12.30;60.00
814;DHT22;389;48.710;9.392;2023-03-14T15:51:16;12.30;59.60
814;DHT22;389;48.710;9.392;2023-03-14T15:53:43;12.30;59.90
814;DHT22;389;48.710;9.392;2023-03-14T15:56:17;12.20;60.30
814;DHT22;389;48.710;9.392;2023-03-14T15:58:43;12.20;60.90
814;DHT22;389;48.710;9.392;2023-03-14T16:01:12;12.10;61.00
814;DHT22;389;48.710;9.392;2023-03-14T16:03:38;12.10;61.70
814;DHT22;389;48.710;9.392;2023-03-14T16:06:04;11.90;61.60
814;DHT22;389;48.710;9.392;2023-03-14T16:08:30;11.80;61.70
814;DHT22;389;48.710;9.392;2023-03-14T16:10:58;11.60;61.90
814;DHT22;389;48.710;9.392;2023-03-14T16:13:24;11.60;63.00
814;DHT22;389;48.710;9.392;2023-03-14T16:15:58;11.60;63.80
814;DHT22;389;48.710;9.392;2023-03-14T16:18:27;11.50;63.10
814;DHT22;389;48.710;9.392;2023-03-14T16:20:55;11.50;63.90
814;DHT22;389;48.710;9.392;2023-03-14T16:23:21;11.40;64.20
814;DHT22;389;48.710;9.392;2023-03-14T16:25:47;11.30;63.90
814;DHT22;389;48.710;9.392;2023-03-14T16:28:12;11.30;65.40
814;DHT22;389;48.710;9.392;2023-03-14T16:30:38;11.30;64.10
814;DHT22;389;48.710;9.392;2023-03-14T16:33:04;11.20;64.60
814;DHT22;389;48.710;9.392;2023-03-14T16:35:37;11.20;65.00
814;DHT22;389;48.710;9.392;2023-03-14T16:38:03;11.20;65.30
814;DHT22;389;48.710;9.392;2023-03-14T16:40:29;11.10;65.30
814;DHT22;389;48.710;9.392;2023-03-14T16:42:55;11.10;65.40
814;DHT22;389;48.710;9.392;2023-03-14T16:45:21;11.00;65.70
814;DHT22;389;48.710;9.392;2023-03-14T16:47:49;11.00;66.40
814;DHT22;389;48.710;9.392;2023-03-14T16:50:15;10.90;66.50
814;DHT22;389;48.710;9.392;2023-03-14T16:52:40;10.90;67.10
814;DHT22;389;48.710;9.392;2023-03-14T16:55:06;10.80;67.10
814;DHT22;389;48.710;9.392;2023-03-14T16:57:33;10.80;67.80
814;DHT22;389;48.710;9.392;2023-03-14T16:59:58;10.80;67.80
814;DHT22;389;48.710;9.392;2023-03-14T17:02:24;10.70;67.60
814;DHT22;389;48.710;9.392;2023-03-14T17:04:50;10.70;67.50
814;DHT22;389;48.710;9.392;2023-03-14T17:07:16;10.70;67.90
814;DHT22;389;48.710;9.392;2023-03-14T17:09:42;10.70;67.70
814;DHT22;389;48.710;9.392;2023-03-14T17:12:08;10.60;68.10
814;DHT22;389;48.710;9.392;2023-03-14T17:14:34;10.60;68.50
814;DHT22;389;48.710;9.392;2023-03-14T17:17:00;10.60;68.50
814;DHT22;389;48.710;9.392;2023-03-14T17:19:26;10.50;68.80
814;DHT22;389;48.710;9.392;2023-03-14T17:21:52;10.50;68.70
814;DHT22;389;48.710;9.392;2023-03-14T17:24:18;10.50;69.00
814;DHT22;389;48.710;9.392;2023-03-14T17:26:44;10.50;69.70
814;DHT22;389;48.710;9.392;2023-03-14T17:29:09;10.50;69.80
814;DHT22;389;48.710;9.392;2023-03-14T17:31:35;10.50;69.80
814;DHT22;389;48.710;9.392;2023-03-14T17:34:01;10.50;70.50
814;DHT22;389;48.710;9.392;2023-03-14T17:36:26;10.40;70.40
814;DHT22;389;48.710;9.392;2023-03-14T17:38:55;10.40;72.40
814;DHT22;389;48.710;9.392;2023-03-14T17:41:20;10.30;73.20
814;DHT22;389;48.710;9.392;2023-03-14T17:43:46;10.20;74.40
814;DHT22;389;48.710;9.392;2023-03-14T17:46:12;10.10;75.00
814;DHT22;389;48.710;9.392;2023-03-14T17:48:46;10.10;76.00
814;DHT22;389;48.710;9.392;2023-03-14T17:54:01;10.00;77.20
814;DHT22;389;48.710;9.392;2023-03-14T17:56:26;9.90;79.20
814;DHT22;389;48.710;9.392;2023-03-14T17:58:52;9.90;80.10
814;DHT22;389;48.710;9.392;2023-03-14T18:01:19;9.80;80.80
814;DHT22;389;48.710;9.392;2023-03-14T18:03:45;9.70;81.40
814;DHT22;389;48.710;9.392;2023-03-14T18:06:12;9.70;82.00
814;DHT22;389;48.710;9.392;2023-03-14T18:08:39;9.60;82.30
814;DHT22;389;48.710;9.392;2023-03-14T18:11:09;9.50;83.50
814;DHT22;389;48.710;9.392;2023-03-14T18:13:35;9.50;83.50
814;DHT22;389;48.710;9.392;2023-03-14T18:16:03;9.40;83.90
814;DHT22;389;48.710;9.392;2023-03-14T18:18:29;9.40;84.40